Wemmel, Belgium
Current Conditions -  °F | °C
As of 11:50 PM on Thursday 23 Oct 2014 (Local Time) from EBBR Reporting Station
Broken Clouds Broken Clouds  
Wind Chill: 52°   Ceiling: 4200
Heat Index: 52°   Visibility: 6mi
Dew Point: 46°   Wind: 10mph
Humidity: 82%   Direction: 200°SSW
Pressure: 30.18"   Gusts: NA
Location:  50.91°N, 4.31°E
Report Text: EBBR 232150Z 20009KT 9999 BKN042 11/08 Q1022 NOSIG
Loading
Personal Weather Stations






























Interactive Weather Map
Tropical Storm Tracking
New forecast layout! Learn more

10-Day Weather Forecast

Advertisements
Track Severe Weather on mobile